sensor_id;sensor_type;location;lat;lon;timestamp;pressure;altitude;pressure_sealevel;temperature;humidity
16120;BME280;12670;53.502;10.252;2022-11-20T00:02:34;100825.88;;;4.50;89.58
16120;BME280;12670;53.502;10.252;2022-11-20T00:05:38;100834.72;;;4.44;89.48
16120;BME280;12670;53.502;10.252;2022-11-20T00:08:41;100831.22;;;4.45;89.92
16120;BME280;12670;53.502;10.252;2022-11-20T00:11:44;100837.25;;;4.50;90.62
16120;BME280;12670;53.502;10.252;2022-11-20T00:14:46;100827.63;;;4.51;90.30
16120;BME280;12670;53.502;10.252;2022-11-20T00:17:49;100830.28;;;4.49;90.01
16120;BME280;12670;53.502;10.252;2022-11-20T00:20:54;100826.66;;;4.57;90.71
16120;BME280;12670;53.502;10.252;2022-11-20T00:24:02;100825.03;;;4.49;90.48
16120;BME280;12670;53.502;10.252;2022-11-20T00:27:05;100826.72;;;4.53;90.57
16120;BME280;12670;53.502;10.252;2022-11-20T00:30:08;100820.53;;;4.58;91.06
16120;BME280;12670;53.502;10.252;2022-11-20T00:33:15;100823.19;;;4.54;90.61
16120;BME280;12670;53.502;10.252;2022-11-20T00:36:20;100832.97;;;4.46;90.91
16120;BME280;12670;53.502;10.252;2022-11-20T00:39:23;100825.72;;;4.61;91.02
16120;BME280;12670;53.502;10.252;2022-11-20T00:42:26;100824.06;;;4.55;91.73
16120;BME280;12670;53.502;10.252;2022-11-20T00:45:28;100816.19;;;4.55;90.25
16120;BME280;12670;53.502;10.252;2022-11-20T00:48:31;100814.38;;;4.59;91.65
16120;BME280;12670;53.502;10.252;2022-11-20T00:51:35;100817.03;;;4.55;91.02
16120;BME280;12670;53.502;10.252;2022-11-20T00:54:38;100816.16;;;4.57;89.37
16120;BME280;12670;53.502;10.252;2022-11-20T00:57:40;100820.69;;;4.45;89.85
16120;BME280;12670;53.502;10.252;2022-11-20T01:00:43;100817.03;;;4.55;90.71
16120;BME280;12670;53.502;10.252;2022-11-20T01:03:49;100818.97;;;4.44;91.65
16120;BME280;12670;53.502;10.252;2022-11-20T01:06:53;100817.56;;;4.22;90.33
16120;BME280;12670;53.502;10.252;2022-11-20T01:09:56;100810.34;;;4.36;90.61
16120;BME280;12670;53.502;10.252;2022-11-20T01:12:58;100812.16;;;4.33;89.89
16120;BME280;12670;53.502;10.252;2022-11-20T01:16:16;100806.88;;;4.34;91.73
16120;BME280;12670;53.502;10.252;2022-11-20T01:19:22;100808.44;;;4.47;90.69
16120;BME280;12670;53.502;10.252;2022-11-20T01:22:27;100804.03;;;4.48;91.29
16120;BME280;12670;53.502;10.252;2022-11-20T01:25:30;100804.13;;;4.42;90.81
16120;BME280;12670;53.502;10.252;2022-11-20T01:28:33;100803.22;;;4.44;90.70
16120;BME280;12670;53.502;10.252;2022-11-20T01:31:37;100798.44;;;4.12;90.03
16120;BME280;12670;53.502;10.252;2022-11-20T01:34:39;100796.69;;;4.13;91.29
16120;BME280;12670;53.502;10.252;2022-11-20T01:37:43;100793.09;;;4.18;91.63
16120;BME280;12670;53.502;10.252;2022-11-20T01:40:53;100782.53;;;4.23;91.40
16120;BME280;12670;53.502;10.252;2022-11-20T01:43:56;100771.06;;;4.30;90.90
16120;BME280;12670;53.502;10.252;2022-11-20T01:47:00;100773.53;;;4.38;91.61
16120;BME280;12670;53.502;10.252;2022-11-20T01:50:10;100773.44;;;4.44;90.91
16120;BME280;12670;53.502;10.252;2022-11-20T01:53:18;100776.31;;;4.30;90.79
16120;BME280;12670;53.502;10.252;2022-11-20T01:56:23;100777.19;;;4.29;90.99
16120;BME280;12670;53.502;10.252;2022-11-20T01:59:28;100770.22;;;4.28;90.16
16120;BME280;12670;53.502;10.252;2022-11-20T02:02:32;100773.56;;;4.36;90.90
16120;BME280;12670;53.502;10.252;2022-11-20T02:05:38;100764.88;;;4.34;90.61
16120;BME280;12670;53.502;10.252;2022-11-20T02:08:44;100756.94;;;4.36;90.33
16120;BME280;12670;53.502;10.252;2022-11-20T02:11:47;100763.78;;;4.47;91.51
16120;BME280;12670;53.502;10.252;2022-11-20T02:14:50;100756.91;;;4.37;90.46
16120;BME280;12670;53.502;10.252;2022-11-20T02:17:51;100750.72;;;4.41;91.00
16120;BME280;12670;53.502;10.252;2022-11-20T02:20:59;100746.38;;;4.39;90.20
16120;BME280;12670;53.502;10.252;2022-11-20T02:24:07;100754.28;;;4.37;92.28
16120;BME280;12670;53.502;10.252;2022-11-20T02:27:12;100754.28;;;4.37;91.31
16120;BME280;12670;53.502;10.252;2022-11-20T02:30:17;100748.22;;;4.35;91.77
16120;BME280;12670;53.502;10.252;2022-11-20T02:33:19;100742.09;;;4.33;91.58
16120;BME280;12670;53.502;10.252;2022-11-20T02:36:23;100741.84;;;4.48;91.31
16120;BME280;12670;53.502;10.252;2022-11-20T02:39:29;100745.31;;;4.50;92.33
16120;BME280;12670;53.502;10.252;2022-11-20T02:42:32;100737.50;;;4.47;92.02
16120;BME280;12670;53.502;10.252;2022-11-20T02:45:35;100744.56;;;4.44;93.11
16120;BME280;12670;53.502;10.252;2022-11-20T02:48:37;100736.81;;;4.36;92.58
16120;BME280;12670;53.502;10.252;2022-11-20T02:51:40;100730.41;;;4.52;92.33
16120;BME280;12670;53.502;10.252;2022-11-20T02:54:44;100735.56;;;4.57;92.64
16120;BME280;12670;53.502;10.252;2022-11-20T02:57:47;100730.72;;;4.34;92.49
16120;BME280;12670;53.502;10.252;2022-11-20T03:00:49;100726.63;;;4.16;92.01
16120;BME280;12670;53.502;10.252;2022-11-20T03:03:52;100722.63;;;4.45;94.40
16120;BME280;12670;53.502;10.252;2022-11-20T03:06:56;100722.88;;;4.31;92.42
16120;BME280;12670;53.502;10.252;2022-11-20T03:10:00;100720.38;;;4.23;93.94
16120;BME280;12670;53.502;10.252;2022-11-20T03:13:02;100721.19;;;4.27;92.81
16120;BME280;12670;53.502;10.252;2022-11-20T03:16:07;100730.69;;;4.36;93.71
16120;BME280;12670;53.502;10.252;2022-11-20T03:19:10;100728.28;;;4.20;93.43
16120;BME280;12670;53.502;10.252;2022-11-20T03:22:13;100724.56;;;4.35;93.52
16120;BME280;12670;53.502;10.252;2022-11-20T03:25:17;100733.97;;;3.94;92.57
16120;BME280;12670;53.502;10.252;2022-11-20T03:28:20;100732.00;;;4.07;93.64
16120;BME280;12670;53.502;10.252;2022-11-20T03:31:25;100724.81;;;4.20;92.97
16120;BME280;12670;53.502;10.252;2022-11-20T03:34:28;100722.78;;;4.37;92.82
16120;BME280;12670;53.502;10.252;2022-11-20T03:37:31;100720.97;;;4.39;92.37
16120;BME280;12670;53.502;10.252;2022-11-20T03:40:35;100714.66;;;4.52;92.93
16120;BME280;12670;53.502;10.252;2022-11-20T03:43:38;100717.50;;;4.39;92.71
16120;BME280;12670;53.502;10.252;2022-11-20T03:46:41;100716.59;;;4.41;92.84
16120;BME280;12670;53.502;10.252;2022-11-20T03:49:44;100712.84;;;4.54;91.67
16120;BME280;12670;53.502;10.252;2022-11-20T03:52:46;100708.59;;;4.47;92.90
16120;BME280;12670;53.502;10.252;2022-11-20T03:55:51;100703.16;;;4.57;92.28
16120;BME280;12670;53.502;10.252;2022-11-20T03:58:54;100705.94;;;4.49;93.07
16120;BME280;12670;53.502;10.252;2022-11-20T04:01:57;100698.31;;;4.35;93.19
16120;BME280;12670;53.502;10.252;2022-11-20T04:05:00;100699.97;;;4.39;93.50
16120;BME280;12670;53.502;10.252;2022-11-20T04:08:03;100694.47;;;4.54;92.59
16120;BME280;12670;53.502;10.252;2022-11-20T04:11:11;100684.84;;;4.53;92.69
16120;BME280;12670;53.502;10.252;2022-11-20T04:14:15;100690.06;;;4.55;93.32
16120;BME280;12670;53.502;10.252;2022-11-20T04:17:17;100687.81;;;4.35;92.34
16120;BME280;12670;53.502;10.252;2022-11-20T04:20:20;100691.50;;;4.23;92.35
16120;BME280;12670;53.502;10.252;2022-11-20T04:23:23;100684.63;;;4.15;93.76
16120;BME280;12670;53.502;10.252;2022-11-20T04:26:30;100694.78;;;4.36;93.55
16120;BME280;12670;53.502;10.252;2022-11-20T04:29:33;100690.44;;;4.35;94.33
16120;BME280;12670;53.502;10.252;2022-11-20T04:32:36;100683.56;;;4.26;93.23
16120;BME280;12670;53.502;10.252;2022-11-20T04:35:38;100690.28;;;4.43;94.09
16120;BME280;12670;53.502;10.252;2022-11-20T04:38:41;100681.38;;;4.51;93.63
16120;BME280;12670;53.502;10.252;2022-11-20T04:41:45;100684.28;;;4.36;91.25
16120;BME280;12670;53.502;10.252;2022-11-20T04:44:48;100684.69;;;4.12;92.11
16120;BME280;12670;53.502;10.252;2022-11-20T04:47:50;100690.47;;;4.32;93.86
16120;BME280;12670;53.502;10.252;2022-11-20T04:50:53;100684.88;;;4.50;93.78
16120;BME280;12670;53.502;10.252;2022-11-20T04:53:56;100685.84;;;4.46;92.45
16120;BME280;12670;53.502;10.252;2022-11-20T04:57:00;100679.63;;;4.50;92.07
16120;BME280;12670;53.502;10.252;2022-11-20T05:00:04;100676.50;;;4.30;92.78
16120;BME280;12670;53.502;10.252;2022-11-20T05:03:07;100678.25;;;4.30;92.96
16120;BME280;12670;53.502;10.252;2022-11-20T05:06:11;100683.34;;;4.39;92.42
16120;BME280;12670;53.502;10.252;2022-11-20T05:09:14;100667.69;;;4.33;92.12
16120;BME280;12670;53.502;10.252;2022-11-20T05:12:18;100668.63;;;4.30;93.37
16120;BME280;12670;53.502;10.252;2022-11-20T05:15:20;100663.25;;;4.36;93.90
16120;BME280;12670;53.502;10.252;2022-11-20T05:18:23;100659.78;;;4.36;92.71
16120;BME280;12670;53.502;10.252;2022-11-20T05:21:26;100659.81;;;4.34;92.61
16120;BME280;12670;53.502;10.252;2022-11-20T05:24:28;100651.72;;;4.45;93.51
16120;BME280;12670;53.502;10.252;2022-11-20T05:27:32;100657.78;;;4.48;91.67
16120;BME280;12670;53.502;10.252;2022-11-20T05:30:35;100661.25;;;4.50;91.25
16120;BME280;12670;53.502;10.252;2022-11-20T05:33:39;100651.78;;;4.42;93.16
16120;BME280;12670;53.502;10.252;2022-11-20T05:36:42;100650.63;;;4.57;93.51
16120;BME280;12670;53.502;10.252;2022-11-20T05:39:45;100645.56;;;4.47;92.97
16120;BME280;12670;53.502;10.252;2022-11-20T05:42:49;100641.84;;;4.59;93.47
16120;BME280;12670;53.502;10.252;2022-11-20T05:45:52;100638.38;;;4.55;91.43
16120;BME280;12670;53.502;10.252;2022-11-20T05:48:55;100639.63;;;4.36;92.70
16120;BME280;12670;53.502;10.252;2022-11-20T05:51:58;100639.38;;;4.50;92.74
16120;BME280;12670;53.502;10.252;2022-11-20T05:55:01;100640.53;;;4.35;93.50
16120;BME280;12670;53.502;10.252;2022-11-20T05:58:05;100635.88;;;4.49;92.93
16120;BME280;12670;53.502;10.252;2022-11-20T06:01:10;100629.09;;;4.38;93.09
16120;BME280;12670;53.502;10.252;2022-11-20T06:04:13;100637.00;;;4.36;93.12
16120;BME280;12670;53.502;10.252;2022-11-20T06:07:15;100632.75;;;4.27;94.52
16120;BME280;12670;53.502;10.252;2022-11-20T06:10:18;100628.97;;;4.44;94.08
16120;BME280;12670;53.502;10.252;2022-11-20T06:13:22;100636.78;;;4.48;92.14
16120;BME280;12670;53.502;10.252;2022-11-20T06:16:25;100635.16;;;4.41;93.01
16120;BME280;12670;53.502;10.252;2022-11-20T06:19:28;100644.09;;;4.31;92.99
16120;BME280;12670;53.502;10.252;2022-11-20T06:22:32;100632.94;;;4.18;94.74
16120;BME280;12670;53.502;10.252;2022-11-20T06:25:37;100640.88;;;4.14;94.34
16120;BME280;12670;53.502;10.252;2022-11-20T06:28:41;100643.47;;;4.15;94.54
16120;BME280;12670;53.502;10.252;2022-11-20T06:31:44;100633.94;;;4.11;94.71
16120;BME280;12670;53.502;10.252;2022-11-20T06:34:46;100632.63;;;3.84;94.89
16120;BME280;12670;53.502;10.252;2022-11-20T06:37:49;100620.22;;;3.92;95.29
16120;BME280;12670;53.502;10.252;2022-11-20T06:40:52;100630.69;;;3.95;93.68
16120;BME280;12670;53.502;10.252;2022-11-20T06:43:56;100626.09;;;4.08;94.32
16120;BME280;12670;53.502;10.252;2022-11-20T06:46:59;100624.41;;;4.04;93.31
16120;BME280;12670;53.502;10.252;2022-11-20T06:50:02;100626.34;;;3.94;93.13
16120;BME280;12670;53.502;10.252;2022-11-20T06:53:05;100630.72;;;3.92;93.48
16120;BME280;12670;53.502;10.252;2022-11-20T06:56:08;100623.44;;;4.10;93.74
16120;BME280;12670;53.502;10.252;2022-11-20T06:59:12;100625.25;;;4.08;93.47
16120;BME280;12670;53.502;10.252;2022-11-20T07:02:15;100624.28;;;4.13;93.75
16120;BME280;12670;53.502;10.252;2022-11-20T07:05:17;100616.44;;;4.12;93.03
16120;BME280;12670;53.502;10.252;2022-11-20T07:08:20;100616.25;;;4.21;94.40
16120;BME280;12670;53.502;10.252;2022-11-20T07:11:23;100620.59;;;4.23;93.92
16120;BME280;12670;53.502;10.252;2022-11-20T07:14:27;100627.50;;;4.27;93.98
16120;BME280;12670;53.502;10.252;2022-11-20T07:17:30;100617.81;;;4.31;93.57
16120;BME280;12670;53.502;10.252;2022-11-20T07:20:32;100617.00;;;4.29;92.69
16120;BME280;12670;53.502;10.252;2022-11-20T07:23:35;100614.16;;;4.41;93.04
16120;BME280;12670;53.502;10.252;2022-11-20T07:26:38;100630.03;;;4.35;92.19
16120;BME280;12670;53.502;10.252;2022-11-20T07:29:42;100629.91;;;4.41;93.21
16120;BME280;12670;53.502;10.252;2022-11-20T07:32:46;100619.25;;;4.49;93.78
16120;BME280;12670;53.502;10.252;2022-11-20T07:35:49;100624.53;;;4.47;93.82
16120;BME280;12670;53.502;10.252;2022-11-20T07:38:52;100615.75;;;4.48;93.56
16120;BME280;12670;53.502;10.252;2022-11-20T07:41:55;100626.22;;;4.51;93.91
16120;BME280;12670;53.502;10.252;2022-11-20T07:44:59;100619.09;;;4.57;93.72
16120;BME280;12670;53.502;10.252;2022-11-20T07:48:02;100621.84;;;4.50;92.95
16120;BME280;12670;53.502;10.252;2022-11-20T07:51:11;100629.72;;;4.50;92.16
16120;BME280;12670;53.502;10.252;2022-11-20T07:54:14;100629.69;;;4.53;92.08
16120;BME280;12670;53.502;10.252;2022-11-20T07:57:17;100622.78;;;3.97;93.57
16120;BME280;12670;53.502;10.252;2022-11-20T08:00:26;100625.03;;;4.20;92.78
16120;BME280;12670;53.502;10.252;2022-11-20T08:03:29;100627.44;;;4.32;92.67
16120;BME280;12670;53.502;10.252;2022-11-20T08:06:32;100622.97;;;4.37;92.90
16120;BME280;12670;53.502;10.252;2022-11-20T08:09:35;100629.69;;;4.53;93.38
16120;BME280;12670;53.502;10.252;2022-11-20T08:12:44;100624.09;;;4.69;91.69
16120;BME280;12670;53.502;10.252;2022-11-20T08:16:05;100619.50;;;4.35;91.90
16120;BME280;12670;53.502;10.252;2022-11-20T08:19:08;100621.69;;;4.60;92.09
16120;BME280;12670;53.502;10.252;2022-11-20T08:22:11;100625.75;;;4.76;90.48
16120;BME280;12670;53.502;10.252;2022-11-20T08:25:14;100626.97;;;4.58;90.53
16120;BME280;12670;53.502;10.252;2022-11-20T08:28:16;100623.88;;;4.36;89.79
16120;BME280;12670;53.502;10.252;2022-11-20T08:31:24;100630.56;;;4.51;88.27
16120;BME280;12670;53.502;10.252;2022-11-20T08:34:28;100626.22;;;4.50;88.65
16120;BME280;12670;53.502;10.252;2022-11-20T08:37:30;100622.38;;;4.21;89.64
16120;BME280;12670;53.502;10.252;2022-11-20T08:40:33;100623.47;;;4.08;90.73
16120;BME280;12670;53.502;10.252;2022-11-20T08:43:36;100621.09;;;3.94;90.53
16120;BME280;12670;53.502;10.252;2022-11-20T08:46:41;100622.50;;;4.14;91.19
16120;BME280;12670;53.502;10.252;2022-11-20T08:49:44;100615.34;;;4.23;90.66
16120;BME280;12670;53.502;10.252;2022-11-20T08:52:47;100621.94;;;4.44;90.44
16120;BME280;12670;53.502;10.252;2022-11-20T08:55:50;100623.53;;;4.54;90.53
16120;BME280;12670;53.502;10.252;2022-11-20T08:58:52;100625.47;;;4.43;88.98
16120;BME280;12670;53.502;10.252;2022-11-20T09:02:16;100633.13;;;4.55;90.47
16120;BME280;12670;53.502;10.252;2022-11-20T09:05:19;100636.31;;;4.73;89.97
16120;BME280;12670;53.502;10.252;2022-11-20T09:08:21;100633.13;;;4.55;90.34
16120;BME280;12670;53.502;10.252;2022-11-20T09:11:24;100634.81;;;4.60;89.92
16120;BME280;12670;53.502;10.252;2022-11-20T09:14:27;100627.63;;;4.68;89.46
16120;BME280;12670;53.502;10.252;2022-11-20T09:17:32;100632.59;;;4.83;89.30
16120;BME280;12670;53.502;10.252;2022-11-20T09:20:35;100624.75;;;4.80;89.74
16120;BME280;12670;53.502;10.252;2022-11-20T09:23:39;100635.16;;;4.86;89.71
16120;BME280;12670;53.502;10.252;2022-11-20T09:26:42;100612.72;;;4.22;91.36
16120;BME280;12670;53.502;10.252;2022-11-20T09:29:44;100623.31;;;4.65;91.12
16120;BME280;12670;53.502;10.252;2022-11-20T09:32:48;100618.50;;;4.87;91.17
16120;BME280;12670;53.502;10.252;2022-11-20T09:35:51;100623.66;;;4.93;89.71
16120;BME280;12670;53.502;10.252;2022-11-20T09:38:54;100620.78;;;4.61;90.49
16120;BME280;12670;53.502;10.252;2022-11-20T09:42:22;100624.59;;;4.89;90.48
16120;BME280;12670;53.502;10.252;2022-11-20T09:45:45;100619.88;;;4.63;91.09
16120;BME280;12670;53.502;10.252;2022-11-20T09:49:02;100619.09;;;4.57;90.35
16120;BME280;12670;53.502;10.252;2022-11-20T09:52:16;100613.59;;;4.69;91.39
16120;BME280;12670;53.502;10.252;2022-11-20T09:55:23;100623.78;;;4.87;91.02
16120;BME280;12670;53.502;10.252;2022-11-20T09:58:30;100618.19;;;5.02;90.79
16120;BME280;12670;53.502;10.252;2022-11-20T10:01:35;100617.91;;;5.15;90.15
16120;BME280;12670;53.502;10.252;2022-11-20T10:04:45;100622.84;;;5.30;89.93
16120;BME280;12670;53.502;10.252;2022-11-20T10:07:52;100623.91;;;5.23;89.36
16120;BME280;12670;53.502;10.252;2022-11-20T10:11:04;100629.25;;;5.18;88.50
16120;BME280;12670;53.502;10.252;2022-11-20T10:14:18;100630.81;;;4.85;89.29
16120;BME280;12670;53.502;10.252;2022-11-20T10:17:34;100621.19;;;4.84;89.81
16120;BME280;12670;53.502;10.252;2022-11-20T10:20:46;100622.34;;;4.71;89.63
16120;BME280;12670;53.502;10.252;2022-11-20T10:24:06;100618.03;;;4.67;90.19
16120;BME280;12670;53.502;10.252;2022-11-20T10:31:02;100607.28;;;4.34;92.70
16120;BME280;12670;53.502;10.252;2022-11-20T10:34:07;100612.31;;;4.46;92.67
16120;BME280;12670;53.502;10.252;2022-11-20T10:37:26;100612.13;;;4.55;91.81
16120;BME280;12670;53.502;10.252;2022-11-20T10:40:34;100604.38;;;4.48;91.47
16120;BME280;12670;53.502;10.252;2022-11-20T10:43:38;100607.22;;;4.37;91.34
16120;BME280;12670;53.502;10.252;2022-11-20T10:46:44;100611.22;;;4.57;91.85
16120;BME280;12670;53.502;10.252;2022-11-20T10:49:51;100594.38;;;4.67;90.85
16120;BME280;12670;53.502;10.252;2022-11-20T10:53:18;100605.59;;;4.76;89.27
16120;BME280;12670;53.502;10.252;2022-11-20T10:56:30;100603.34;;;5.00;87.65
16120;BME280;12670;53.502;10.252;2022-11-20T10:59:48;100613.66;;;5.09;87.82
16120;BME280;12670;53.502;10.252;2022-11-20T11:02:55;100604.72;;;4.76;88.18
16120;BME280;12670;53.502;10.252;2022-11-20T11:06:07;100607.00;;;4.91;88.80
16120;BME280;12670;53.502;10.252;2022-11-20T11:09:16;100602.63;;;4.92;88.57
16120;BME280;12670;53.502;10.252;2022-11-20T11:12:24;100595.69;;;5.29;89.27
16120;BME280;12670;53.502;10.252;2022-11-20T11:15:29;100589.34;;;5.38;87.02
16120;BME280;12670;53.502;10.252;2022-11-20T11:18:33;100576.91;;;5.46;88.13
16120;BME280;12670;53.502;10.252;2022-11-20T11:21:37;100573.91;;;5.23;86.12
16120;BME280;12670;53.502;10.252;2022-11-20T11:24:52;100583.72;;;5.15;87.61
16120;BME280;12670;53.502;10.252;2022-11-20T11:27:57;100574.59;;;5.31;86.27
16120;BME280;12670;53.502;10.252;2022-11-20T11:31:00;100579.19;;;5.21;86.01
16120;BME280;12670;53.502;10.252;2022-11-20T11:34:04;100576.94;;;5.43;85.23
16120;BME280;12670;53.502;10.252;2022-11-20T11:37:14;100576.94;;;5.43;84.43
16120;BME280;12670;53.502;10.252;2022-11-20T11:40:21;100575.56;;;5.27;83.90
16120;BME280;12670;53.502;10.252;2022-11-20T11:43:27;100566.47;;;5.42;84.26
16120;BME280;12670;53.502;10.252;2022-11-20T11:46:52;100570.00;;;5.41;84.63
16120;BME280;12670;53.502;10.252;2022-11-20T11:50:14;100572.97;;;5.25;83.26
16120;BME280;12670;53.502;10.252;2022-11-20T11:53:19;100567.44;;;4.99;83.21
16120;BME280;12670;53.502;10.252;2022-11-20T11:56:24;100571.25;;;4.84;82.74
16120;BME280;12670;53.502;10.252;2022-11-20T11:59:35;100578.22;;;4.85;85.17
16120;BME280;12670;53.502;10.252;2022-11-20T12:02:53;100576.50;;;4.84;84.76
16120;BME280;12670;53.502;10.252;2022-11-20T12:06:02;100583.31;;;4.94;83.15
16120;BME280;12670;53.502;10.252;2022-11-20T12:09:10;100579.22;;;4.81;85.06
16120;BME280;12670;53.502;10.252;2022-11-20T12:12:18;100570.88;;;4.59;84.35
16120;BME280;12670;53.502;10.252;2022-11-20T12:15:26;100577.06;;;5.00;85.46
16120;BME280;12670;53.502;10.252;2022-11-20T12:18:31;100583.03;;;5.06;84.58
16120;BME280;12670;53.502;10.252;2022-11-20T12:21:44;100569.66;;;5.17;85.24
16120;BME280;12670;53.502;10.252;2022-11-20T12:24:55;100562.31;;;5.31;83.22
16120;BME280;12670;53.502;10.252;2022-11-20T12:28:19;100572.91;;;4.88;83.80
16120;BME280;12670;53.502;10.252;2022-11-20T12:31:37;100571.19;;;4.87;83.70
16120;BME280;12670;53.502;10.252;2022-11-20T12:34:52;100567.13;;;5.13;83.99
16120;BME280;12670;53.502;10.252;2022-11-20T12:38:13;100553.16;;;5.48;81.95
16120;BME280;12670;53.502;10.252;2022-11-20T12:41:33;100546.94;;;5.50;82.03
16120;BME280;12670;53.502;10.252;2022-11-20T12:45:13;100554.28;;;5.38;83.12
16120;BME280;12670;53.502;10.252;2022-11-20T12:48:41;100553.84;;;5.19;82.84
16120;BME280;12670;53.502;10.252;2022-11-20T12:52:12;100553.06;;;4.75;83.75
16120;BME280;12670;53.502;10.252;2022-11-20T12:55:42;100548.69;;;5.14;83.82
16120;BME280;12670;53.502;10.252;2022-11-20T12:58:53;100539.41;;;5.37;85.56
16120;BME280;12670;53.502;10.252;2022-11-20T13:02:14;100539.16;;;5.08;80.99
16120;BME280;12670;53.502;10.252;2022-11-20T13:05:24;100539.69;;;5.24;82.51
16120;BME280;12670;53.502;10.252;2022-11-20T13:08:34;100540.56;;;5.25;79.04
16120;BME280;12670;53.502;10.252;2022-11-20T13:11:41;100548.81;;;5.08;81.75
16120;BME280;12670;53.502;10.252;2022-11-20T13:14:52;100549.53;;;5.15;82.32
16120;BME280;12670;53.502;10.252;2022-11-20T13:17:59;100552.88;;;5.23;81.32
16120;BME280;12670;53.502;10.252;2022-11-20T13:21:13;100549.16;;;5.31;82.97
16120;BME280;12670;53.502;10.252;2022-11-20T13:24:22;100542.28;;;5.61;83.39
16120;BME280;12670;53.502;10.252;2022-11-20T13:27:25;100550.03;;;5.69;81.49
16120;BME280;12670;53.502;10.252;2022-11-20T13:30:33;100533.31;;;5.70;79.78
16120;BME280;12670;53.502;10.252;2022-11-20T13:33:39;100541.19;;;5.72;80.18
16120;BME280;12670;53.502;10.252;2022-11-20T13:36:49;100533.31;;;5.70;79.43
16120;BME280;12670;53.502;10.252;2022-11-20T13:39:53;100528.88;;;5.37;80.87
16120;BME280;12670;53.502;10.252;2022-11-20T13:43:01;100522.41;;;5.51;81.84
16120;BME280;12670;53.502;10.252;2022-11-20T13:46:06;100518.84;;;5.52;81.36
16120;BME280;12670;53.502;10.252;2022-11-20T13:49:23;100516.22;;;5.52;82.91
16120;BME280;12670;53.502;10.252;2022-11-20T13:52:39;100517.69;;;5.64;80.77
16120;BME280;12670;53.502;10.252;2022-11-20T13:55:49;100520.28;;;5.66;81.43
16120;BME280;12670;53.502;10.252;2022-11-20T13:59:00;100511.13;;;5.45;80.43
16120;BME280;12670;53.502;10.252;2022-11-20T14:02:10;100507.34;;;5.56;80.82
16120;BME280;12670;53.502;10.252;2022-11-20T14:05:19;100503.53;;;5.68;79.21
16120;BME280;12670;53.502;10.252;2022-11-20T14:08:27;100494.00;;;5.62;81.10
16120;BME280;12670;53.502;10.252;2022-11-20T14:11:33;100493.09;;;5.65;81.28
16120;BME280;12670;53.502;10.252;2022-11-20T14:14:47;100498.16;;;5.73;79.72
16120;BME280;12670;53.502;10.252;2022-11-20T14:17:51;100497.28;;;5.72;79.55
16120;BME280;12670;53.502;10.252;2022-11-20T14:20:55;100500.88;;;5.70;81.89
16120;BME280;12670;53.502;10.252;2022-11-20T14:24:05;100493.16;;;5.62;81.46
16120;BME280;12670;53.502;10.252;2022-11-20T14:27:12;100494.81;;;5.66;80.32
16120;BME280;12670;53.502;10.252;2022-11-20T14:30:18;100486.16;;;5.61;80.56
16120;BME280;12670;53.502;10.252;2022-11-20T14:33:22;100480.13;;;5.57;82.03
16120;BME280;12670;53.502;10.252;2022-11-20T14:36:28;100480.41;;;5.45;83.58
16120;BME280;12670;53.502;10.252;2022-11-20T14:39:33;100482.94;;;5.50;84.51
16120;BME280;12670;53.502;10.252;2022-11-20T14:42:36;100483.97;;;5.44;82.81
16120;BME280;12670;53.502;10.252;2022-11-20T14:45:39;100486.28;;;5.56;82.68
16120;BME280;12670;53.502;10.252;2022-11-20T14:48:45;100482.19;;;5.46;82.71
16120;BME280;12670;53.502;10.252;2022-11-20T14:51:59;100479.44;;;5.49;81.42
16120;BME280;12670;53.502;10.252;2022-11-20T14:55:03;100477.84;;;5.44;82.88
16120;BME280;12670;53.502;10.252;2022-11-20T14:58:19;100473.38;;;5.47;83.42
16120;BME280;12670;53.502;10.252;2022-11-20T15:01:25;100468.22;;;5.43;83.87
16120;BME280;12670;53.502;10.252;2022-11-20T15:04:29;100475.28;;;5.41;83.23
16120;BME280;12670;53.502;10.252;2022-11-20T15:07:34;100464.72;;;5.42;81.47
16120;BME280;12670;53.502;10.252;2022-11-20T15:10:38;100467.63;;;5.31;82.12
16120;BME280;12670;53.502;10.252;2022-11-20T15:13:41;100464.94;;;5.34;82.73
16120;BME280;12670;53.502;10.252;2022-11-20T15:16:44;100463.31;;;5.29;82.87
16120;BME280;12670;53.502;10.252;2022-11-20T15:19:47;100460.06;;;5.18;82.66
16120;BME280;12670;53.502;10.252;2022-11-20T15:22:51;100459.66;;;5.34;81.27
16120;BME280;12670;53.502;10.252;2022-11-20T15:25:54;100455.41;;;5.29;80.97
16120;BME280;12670;53.502;10.252;2022-11-20T15:28:57;100459.69;;;5.33;81.12
16120;BME280;12670;53.502;10.252;2022-11-20T15:32:00;100460.69;;;5.29;82.63
16120;BME280;12670;53.502;10.252;2022-11-20T15:35:03;100454.31;;;5.38;81.50
16120;BME280;12670;53.502;10.252;2022-11-20T15:38:07;100453.56;;;5.32;82.86
16120;BME280;12670;53.502;10.252;2022-11-20T15:41:10;100455.88;;;5.45;84.01
16120;BME280;12670;53.502;10.252;2022-11-20T15:44:13;100460.13;;;5.50;84.71
16120;BME280;12670;53.502;10.252;2022-11-20T15:47:16;100447.16;;;5.43;84.08
16120;BME280;12670;53.502;10.252;2022-11-20T15:50:20;100442.78;;;5.43;85.44
16120;BME280;12670;53.502;10.252;2022-11-20T15:53:24;100440.22;;;5.40;85.38
16120;BME280;12670;53.502;10.252;2022-11-20T15:56:27;100448.94;;;5.42;85.62
16120;BME280;12670;53.502;10.252;2022-11-20T15:59:30;100446.78;;;5.24;87.35
16120;BME280;12670;53.502;10.252;2022-11-20T16:02:33;100446.84;;;5.21;86.91
16120;BME280;12670;53.502;10.252;2022-11-20T16:05:36;100451.94;;;5.28;86.63
16120;BME280;12670;53.502;10.252;2022-11-20T16:08:40;100445.88;;;5.25;86.01
16120;BME280;12670;53.502;10.252;2022-11-20T16:11:43;100439.84;;;5.20;86.10
16120;BME280;12670;53.502;10.252;2022-11-20T16:14:46;100444.19;;;5.21;87.21
16120;BME280;12670;53.502;10.252;2022-11-20T16:18:16;100430.19;;;5.22;88.81